Time;durP1;ratioP1;P1;durP2;ratioP2;P2;SDS_P1;SDS_P2;PMS_P1;PMS_P2;Temp;Humidity;BMP_temperature;BMP_pressure;BME280_temperature;BME280_humidity;BME280_pressure;Samples;Min_cycle;Max_cycle;Signal;HPM_P1;HPM_P2
2023/04/21 00:01:07;;;;;;;0.33;0.33;;;;;;;5.71;100.00;100589.91;5022020;28;20173;-85
2023/04/21 00:03:36;;;;;;;1.67;1.57;;;;;;;5.71;100.00;100594.53;5020909;28;20196;-84
2023/04/21 00:06:01;;;;;;;0.00;0.00;;;;;;;5.75;100.00;100592.88;5022055;28;20615;-84
2023/04/21 00:08:27;;;;;;;1.37;1.27;;;;;;;5.65;100.00;100588.31;5022703;28;20362;-84
2023/04/21 00:10:52;;;;;;;4.40;1.27;;;;;;;5.64;100.00;100583.97;5022200;28;20207;-84
2023/04/21 00:13:17;;;;;;;1.03;1.03;;;;;;;5.57;100.00;100586.16;5021778;28;20187;-84
2023/04/21 00:15:50;;;;;;;0.00;0.00;;;;;;;5.48;100.00;100595.91;5022949;28;20220;-85
2023/04/21 00:18:16;;;;;;;0.00;0.00;;;;;;;5.45;100.00;100586.44;5005463;28;20180;-84
2023/04/21 00:20:42;;;;;;;0.30;0.30;;;;;;;5.49;100.00;100581.28;5023489;28;20573;-84
2023/04/21 00:23:09;;;;;;;0.20;0.20;;;;;;;5.44;100.00;100571.28;5021370;28;20267;-85
2023/04/21 00:25:35;;;;;;;0.30;0.30;;;;;;;5.41;100.00;100561.00;5022089;28;20259;-84
2023/04/21 00:28:00;;;;;;;0.30;0.30;;;;;;;5.45;100.00;100561.25;5021049;28;20196;-83
2023/04/21 00:30:25;;;;;;;0.00;0.00;;;;;;;5.52;100.00;100559.09;5021888;28;20176;-85
2023/04/21 00:32:51;;;;;;;1.00;1.00;;;;;;;5.68;100.00;100564.19;5020589;28;20208;-85
2023/04/21 00:35:16;;;;;;;0.00;0.00;;;;;;;5.78;100.00;100552.47;5019122;28;20188;-85
2023/04/21 00:37:41;;;;;;;0.30;0.30;;;;;;;5.80;100.00;100549.50;5020748;28;20314;-83
2023/04/21 00:40:07;;;;;;;0.70;0.70;;;;;;;5.95;100.00;100534.03;5018581;28;20685;-83
2023/04/21 00:42:33;;;;;;;0.40;0.40;;;;;;;6.04;100.00;100545.09;5017582;28;20173;-84
2023/04/21 00:44:58;;;;;;;3.43;3.23;;;;;;;6.05;100.00;100537.75;5017857;28;20234;-83
2023/04/21 00:47:24;;;;;;;3.10;3.00;;;;;;;6.10;100.00;100530.41;5020095;28;20677;-84
2023/04/21 00:49:49;;;;;;;7.63;7.00;;;;;;;6.16;100.00;100523.06;5018987;28;20663;-83
2023/04/21 00:52:17;;;;;;;5.43;5.03;;;;;;;6.16;100.00;100531.19;5018307;28;20173;-84
2023/04/21 00:54:42;;;;;;;3.10;2.90;;;;;;;6.13;100.00;100529.84;5019189;28;20202;-84
2023/04/21 00:57:09;;;;;;;3.53;3.33;;;;;;;6.11;100.00;100531.22;5022587;28;20204;-84
2023/04/21 00:59:35;;;;;;;1.73;1.60;;;;;;;6.14;100.00;100528.75;5020753;28;20192;-85
2023/04/21 01:02:00;;;;;;;4.37;3.50;;;;;;;6.19;100.00;100530.63;5020936;28;20177;-84
2023/04/21 01:04:26;;;;;;;0.00;0.00;;;;;;;6.11;100.00;100531.22;5021841;28;20176;-82
2023/04/21 01:06:52;;;;;;;0.20;0.20;;;;;;;6.07;100.00;100522.00;5020504;28;20196;-83
2023/04/21 01:09:17;;;;;;;1.87;0.70;;;;;;;6.03;100.00;100523.66;5021902;28;20179;-84
2023/04/21 01:12:08;;;;;;;0.73;0.73;;;;;;;6.00;100.00;100527.75;5021389;28;20179;-85
2023/04/21 01:14:38;;;;;;;0.20;0.20;;;;;;;5.98;100.00;100527.22;5021956;28;20583;-84
2023/04/21 01:17:04;;;;;;;0.60;0.60;;;;;;;5.96;100.00;100530.22;5022629;28;20219;-84
2023/04/21 01:19:33;;;;;;;2.70;1.70;;;;;;;5.87;100.00;100526.41;5024191;28;20196;-83
2023/04/21 01:21:59;;;;;;;0.63;0.63;;;;;;;5.94;100.00;100529.69;5021610;28;20169;-83
2023/04/21 01:24:42;;;;;;;0.10;0.10;;;;;;;6.00;100.00;100527.75;5019989;28;20176;-85
2023/04/21 01:27:12;;;;;;;1.70;1.07;;;;;;;6.01;100.00;100532.09;5019910;28;20427;-84
2023/04/21 01:29:39;;;;;;;0.57;0.57;;;;;;;6.00;100.00;100538.59;5020427;28;20265;-84
2023/04/21 01:32:10;;;;;;;1.00;1.00;;;;;;;5.91;100.00;100535.66;5022154;28;20168;-84
2023/04/21 01:34:36;;;;;;;0.87;0.87;;;;;;;5.89;100.00;100539.69;5020749;28;20172;-83
2023/04/21 01:37:02;;;;;;;3.03;2.37;;;;;;;5.80;100.00;100523.22;5020977;28;20192;-84
2023/04/21 01:39:28;;;;;;;1.80;1.70;;;;;;;5.69;100.00;100532.47;5022240;28;20200;-85
2023/04/21 01:41:56;;;;;;;0.57;0.57;;;;;;;5.69;100.00;100529.75;5021965;28;20172;-83
2023/04/21 01:44:22;;;;;;;0.30;0.30;;;;;;;5.75;100.00;100534.06;5020533;28;20693;-83
2023/04/21 01:46:47;;;;;;;0.20;0.20;;;;;;;5.66;100.00;100527.59;5022273;28;20203;-84
2023/04/21 01:49:12;;;;;;;2.67;2.47;;;;;;;5.54;100.00;100516.25;5022527;28;20232;-84
2023/04/21 01:51:38;;;;;;;5.27;3.77;;;;;;;5.50;100.00;100518.72;5023403;28;20172;-83
2023/04/21 01:54:03;;;;;;;3.40;1.90;;;;;;;5.50;100.00;100513.28;5023634;28;20188;-84
2023/04/21 01:56:28;;;;;;;2.17;1.77;;;;;;;5.55;100.00;100517.88;5023095;28;20200;-84
2023/04/21 01:58:53;;;;;;;3.23;3.00;;;;;;;5.60;100.00;100509.72;5024005;28;20671;-83
2023/04/21 02:01:19;;;;;;;2.77;2.57;;;;;;;5.68;100.00;100509.97;5022854;28;20177;-84
2023/04/21 02:03:44;;;;;;;2.00;0.93;;;;;;;5.71;100.00;100508.59;5021744;28;20173;-82
2023/04/21 02:06:10;;;;;;;0.80;0.77;;;;;;;5.76;100.00;100508.56;5023714;28;20188;-84
2023/04/21 02:08:35;;;;;;;0.53;0.53;;;;;;;5.75;100.00;100498.81;5024291;28;20198;-83
2023/04/21 02:11:00;;;;;;;0.63;0.63;;;;;;;5.80;100.00;100498.81;5020144;28;20208;-82
2023/04/21 02:13:26;;;;;;;0.20;0.20;;;;;;;5.61;100.00;100503.22;5021441;28;20293;-84
2023/04/21 02:15:51;;;;;;;1.30;0.67;;;;;;;5.65;100.00;100496.97;5020847;28;20172;-84
2023/04/21 02:18:16;;;;;;;16.10;3.50;;;;;;;5.65;100.00;100494.28;5022788;28;20203;-83
2023/04/21 02:20:42;;;;;;;12.43;7.03;;;;;;;5.90;100.00;100487.94;5023583;28;20549;-83
2023/04/21 02:23:07;;;;;;;4.40;4.07;;;;;;;5.99;100.00;100492.78;5022233;28;20323;-85
2023/04/21 02:25:32;;;;;;;5.93;5.43;;;;;;;6.02;100.00;100487.59;5014008;28;20181;-84
2023/04/21 02:27:58;;;;;;;4.87;4.37;;;;;;;6.07;100.00;100487.56;5004148;28;20200;-84
2023/04/21 02:30:23;;;;;;;8.83;5.47;;;;;;;6.14;100.00;100492.69;5003240;28;20247;-84
2023/04/21 02:32:49;;;;;;;2.77;2.67;;;;;;;6.17;100.00;100492.13;5004380;28;20173;-84
2023/04/21 02:35:14;;;;;;;5.40;4.87;;;;;;;6.14;100.00;100492.69;5002537;28;20203;-83
2023/04/21 02:37:40;;;;;;;4.13;3.27;;;;;;;6.11;100.00;100488.66;5003975;28;20687;-84
2023/04/21 02:40:05;;;;;;;3.17;2.97;;;;;;;6.11;100.00;100488.66;5002303;28;20239;-83
2023/04/21 02:42:34;;;;;;;0.73;0.73;;;;;;;6.15;100.00;100483.47;5003430;28;20256;-83
2023/04/21 02:44:59;;;;;;;0.50;0.50;;;;;;;6.14;100.00;100498.13;5001880;28;20759;-84
2023/04/21 02:47:25;;;;;;;2.13;0.33;;;;;;;6.14;100.00;100498.94;5001986;28;20243;-83
2023/04/21 02:49:50;;;;;;;1.83;1.73;;;;;;;6.08;100.00;100493.81;5002482;28;20205;-84
2023/04/21 02:52:15;;;;;;;1.43;1.43;;;;;;;6.03;100.00;100496.53;5003505;28;20181;-84
2023/04/21 02:54:41;;;;;;;0.00;0.00;;;;;;;6.08;100.00;100499.25;5001449;28;20178;-83
2023/04/21 02:57:06;;;;;;;0.57;0.57;;;;;;;6.13;100.00;100501.91;5028257;23;20232;-86
2023/04/21 02:59:31;;;;;;;0.00;0.00;;;;;;;6.13;100.00;100510.06;5014102;28;20208;-86
2023/04/21 03:01:57;;;;;;;0.00;0.00;;;;;;;6.03;100.00;100510.91;5014120;28;20584;-86
2023/04/21 03:04:24;;;;;;;0.00;0.00;;;;;;;6.03;100.00;100510.91;5012532;28;20184;-86
2023/04/21 03:06:52;;;;;;;0.10;0.10;;;;;;;5.95;100.00;100511.53;5013755;28;20250;-85
2023/04/21 03:09:20;;;;;;;0.10;0.10;;;;;;;5.84;100.00;100509.91;5012156;28;20188;-86
2023/04/21 03:11:45;;;;;;;0.10;0.10;;;;;;;5.80;100.00;100508.84;5012662;28;20183;-86
2023/04/21 03:14:10;;;;;;;0.53;0.53;;;;;;;5.76;100.00;100508.56;5013475;28;20184;-86
2023/04/21 03:16:36;;;;;;;0.27;0.27;;;;;;;5.86;100.00;100513.97;5012312;28;20685;-86
2023/04/21 03:19:01;;;;;;;1.43;1.33;;;;;;;5.92;100.00;100514.75;5013159;28;20192;-86
2023/04/21 03:21:30;;;;;;;2.37;1.80;;;;;;;5.70;100.00;100511.59;5013611;28;20172;-86
2023/04/21 03:23:55;;;;;;;1.63;1.53;;;;;;;5.69;100.00;100518.91;5011810;28;20561;-86
2023/04/21 03:26:20;;;;;;;7.43;2.00;;;;;;;5.55;100.00;100515.97;5012503;28;20283;-86
2023/04/21 03:28:46;;;;;;;3.20;1.33;;;;;;;5.40;100.00;100521.44;5012186;28;20631;-85
2023/04/21 03:31:11;;;;;;;2.63;2.43;;;;;;;5.29;100.00;100515.22;5013573;28;20176;-86
2023/04/21 03:33:36;;;;;;;1.83;1.47;;;;;;;5.22;100.00;100522.03;5013244;28;20627;-86
2023/04/21 03:36:02;;;;;;;1.07;1.03;;;;;;;5.18;100.00;100531.78;5012107;28;20276;-86
2023/04/21 03:38:27;;;;;;;0.37;0.37;;;;;;;5.11;100.00;100523.13;5013117;28;20259;-86
2023/04/21 03:40:53;;;;;;;0.00;0.00;;;;;;;5.06;100.00;100523.94;5013368;28;20183;-86
2023/04/21 03:43:21;;;;;;;0.70;0.70;;;;;;;5.10;100.00;100532.34;5011976;28;20184;-85
2023/04/21 03:45:46;;;;;;;0.00;0.00;;;;;;;5.04;100.00;100528.81;5013448;28;20187;-86
2023/04/21 03:48:12;;;;;;;0.30;0.30;;;;;;;5.03;100.00;100530.69;5013201;28;20196;-86
2023/04/21 03:50:37;;;;;;;0.00;0.00;;;;;;;5.04;100.00;100534.22;5011573;28;20211;-86
2023/04/21 03:53:03;;;;;;;0.37;0.37;;;;;;;5.05;100.00;100535.84;5012818;28;20176;-86
2023/04/21 03:55:28;;;;;;;15.57;2.30;;;;;;;5.08;100.00;100546.97;5013039;28;20651;-86
2023/04/21 03:57:53;;;;;;;0.67;0.67;;;;;;;4.96;100.00;100537.50;5013047;28;20212;-86
2023/04/21 04:00:37;;;;;;;0.77;0.77;;;;;;;4.85;100.00;100541.28;5011878;28;20227;-86
2023/04/21 04:03:02;;;;;;;2.80;2.60;;;;;;;4.81;100.00;100542.91;5011704;28;20492;-85
2023/04/21 04:05:32;;;;;;;0.03;0.03;;;;;;;4.75;100.00;100542.88;5011873;28;20176;-85
2023/04/21 04:08:18;;;;;;;0.77;0.77;;;;;;;4.72;100.00;100539.91;5012279;28;20234;-86
2023/04/21 04:10:46;;;;;;;0.00;0.00;;;;;;;4.79;100.00;100543.19;5012148;28;20187;-85
2023/04/21 04:13:12;;;;;;;0.00;0.00;;;;;;;4.64;100.00;100541.28;5012975;28;20199;-86
2023/04/21 04:15:37;;;;;;;0.00;0.00;;;;;;;4.65;100.00;100523.97;5012914;28;20821;-86
2023/04/21 04:18:03;;;;;;;4.63;4.30;;;;;;;4.76;100.00;100528.28;5011978;28;20200;-86
2023/04/21 04:20:31;;;;;;;0.10;0.10;;;;;;;4.84;100.00;100523.41;5013590;28;20227;-86
2023/04/21 04:22:56;;;;;;;2.23;2.10;;;;;;;4.92;100.00;100528.28;5018550;28;20228;-85
2023/04/21 04:25:22;;;;;;;1.77;1.67;;;;;;;4.87;100.00;100520.97;5029334;28;20181;-85
2023/04/21 04:27:48;;;;;;;2.37;2.27;;;;;;;4.76;100.00;100519.34;5034346;28;20258;-85
2023/04/21 04:30:13;;;;;;;0.93;0.93;;;;;;;4.72;100.00;100520.97;5025911;28;20240;-85
2023/04/21 04:32:40;;;;;;;11.80;10.83;;;;;;;4.70;100.00;100523.97;5024808;28;20238;-86
2023/04/21 04:35:06;;;;;;;0.47;0.47;;;;;;;4.71;100.00;100530.19;5011701;28;20183;-85
2023/04/21 04:37:33;;;;;;;0.00;0.00;;;;;;;4.72;100.00;100520.97;5011699;28;20579;-86
2023/04/21 04:40:01;;;;;;;0.00;0.00;;;;;;;4.78;100.00;100519.91;5011455;28;20290;-86
2023/04/21 04:42:26;;;;;;;4.63;0.73;;;;;;;4.96;100.00;100518.53;5011428;28;20180;-85
2023/04/21 04:44:56;;;;;;;9.40;6.20;;;;;;;5.02;100.00;100518.25;5011123;28;20176;-86
2023/04/21 04:47:24;;;;;;;0.20;0.20;;;;;;;5.08;100.00;100509.06;5011438;28;20228;-86
2023/04/21 04:49:50;;;;;;;0.00;0.00;;;;;;;5.14;100.00;100512.56;5012598;28;20174;-86
2023/04/21 04:52:15;;;;;;;0.00;0.00;;;;;;;5.22;100.00;100514.72;5011188;28;20263;-86
2023/04/21 04:54:40;;;;;;;0.73;0.73;;;;;;;5.32;100.00;100508.44;5010659;28;20185;-86
2023/04/21 04:57:06;;;;;;;0.10;0.10;;;;;;;5.37;100.00;100505.75;5011926;28;20255;-86
2023/04/21 04:59:31;;;;;;;0.00;0.00;;;;;;;5.42;100.00;100508.44;5011126;28;20203;-86
2023/04/21 05:01:56;;;;;;;0.00;0.00;;;;;;;5.47;100.00;100500.28;5011151;28;20180;-86
2023/04/21 05:04:22;;;;;;;2.37;2.27;;;;;;;5.60;100.00;100515.13;5010673;28;20697;-86
2023/04/21 05:06:50;;;;;;;0.10;0.10;;;;;;;5.62;100.00;100513.78;5010771;28;20677;-86
2023/04/21 05:09:18;;;;;;;16.77;2.43;;;;;;;5.59;100.00;100513.53;5011779;28;20165;-86
2023/04/21 05:11:43;;;;;;;3.00;2.90;;;;;;;5.48;100.00;100522.75;5011899;28;20176;-86
2023/04/21 05:14:09;;;;;;;1.83;0.83;;;;;;;5.48;100.00;100522.75;5010702;28;20180;-85
2023/04/21 05:16:34;;;;;;;0.00;0.00;;;;;;;5.47;100.00;100524.66;5010718;28;20330;-85
2023/04/21 05:19:03;;;;;;;0.00;0.00;;;;;;;5.54;100.00;100518.97;5011800;28;20223;-86
2023/04/21 05:21:30;;;;;;;0.00;0.00;;;;;;;5.76;100.00;100529.44;5012096;28;20173;-86
2023/04/21 05:23:56;;;;;;;0.00;0.00;;;;;;;5.84;100.00;100516.13;5011581;28;20181;-85
2023/04/21 05:26:26;;;;;;;0.00;0.00;;;;;;;6.01;100.00;100523.94;5012241;28;20289;-85
2023/04/21 05:28:55;;;;;;;0.00;0.00;;;;;;;6.08;100.00;100520.94;5011887;28;20172;-86
2023/04/21 05:31:23;;;;;;;3.43;2.03;;;;;;;6.11;100.00;100518.47;5012006;28;20176;-86
2023/04/21 05:33:49;;;;;;;2.03;1.93;;;;;;;6.18;100.00;100520.88;5010789;28;20187;-85
2023/04/21 05:36:14;;;;;;;0.00;0.00;;;;;;;6.21;100.00;100514.88;5011365;28;20181;-85
2023/04/21 05:38:40;;;;;;;0.00;0.00;;;;;;;6.26;100.00;100517.59;5010763;28;20728;-85
2023/04/21 05:41:05;;;;;;;0.13;0.13;;;;;;;6.38;100.00;100511.81;5014248;28;20251;-85
2023/04/21 05:43:36;;;;;;;3.47;3.23;;;;;;;6.73;100.00;100506.09;5015325;28;20259;-86
2023/04/21 05:46:09;;;;;;;2.07;1.83;;;;;;;7.09;100.00;100508.53;5030605;28;20211;-85
2023/04/21 05:48:35;;;;;;;1.40;1.30;;;;;;;7.26;100.00;100508.06;5014157;28;20180;-85
2023/04/21 05:51:11;;;;;;;9.57;8.77;;;;;;;7.41;100.00;100510.63;5013090;28;20215;-85
2023/04/21 05:53:40;;;;;;;0.70;0.70;;;;;;;7.48;100.00;100519.25;5015293;28;20176;-86
2023/04/21 05:56:08;;;;;;;9.97;4.10;;;;;;;7.62;100.00;100522.06;5014010;28;20186;-85
2023/04/21 05:58:34;;;;;;;1.80;1.70;;;;;;;7.62;100.00;100522.88;5015264;28;20180;-85
2023/04/21 06:01:00;;;;;;;2.37;2.17;;;;;;;7.69;100.00;100519.84;5014126;28;20213;-86
2023/04/21 06:03:25;;;;;;;0.53;0.53;;;;;;;7.75;100.00;100521.38;5013696;28;20569;-85
2023/04/21 06:05:54;;;;;;;3.83;3.53;;;;;;;7.89;100.00;100526.91;5014057;28;20180;-86
2023/04/21 06:08:21;;;;;;;0.00;0.00;;;;;;;7.95;100.00;100526.56;5014719;28;20283;-85
2023/04/21 06:10:46;;;;;;;1.07;0.40;;;;;;;8.10;100.00;100514.69;5014998;28;20305;-86
2023/04/21 06:13:12;;;;;;;4.33;3.87;;;;;;;8.12;100.00;100517.91;5013540;28;20662;-85
2023/04/21 06:15:37;;;;;;;1.33;1.33;;;;;;;8.21;100.00;100518.88;5014786;28;20169;-86
2023/04/21 06:18:02;;;;;;;0.83;0.83;;;;;;;8.29;100.00;100518.22;5015025;28;20674;-86
2023/04/21 06:20:28;;;;;;;3.33;3.07;;;;;;;8.43;100.00;100509.34;5012700;28;20556;-86
2023/04/21 06:22:53;;;;;;;1.80;1.03;;;;;;;8.50;100.00;100515.22;5014133;28;20194;-86
2023/04/21 06:25:18;;;;;;;0.70;0.70;;;;;;;8.55;100.00;100520.59;5014256;28;20191;-87
2023/04/21 06:27:44;;;;;;;6.13;5.73;;;;;;;8.61;100.00;100519.41;5014383;28;20681;-86
2023/04/21 06:30:10;;;;;;;3.77;3.57;;;;;;;8.62;100.00;100516.38;5013235;28;20173;-86
2023/04/21 06:32:38;;;;;;;8.63;3.33;;;;;;;8.77;100.00;100507.16;5013496;28;20176;-86
2023/04/21 06:35:03;;;;;;;7.33;5.30;;;;;;;8.86;100.00;100505.38;5012885;28;20189;-87
2023/04/21 06:37:31;;;;;;;2.03;1.93;;;;;;;8.90;100.00;100511.03;5013243;28;20204;-86
2023/04/21 06:39:57;;;;;;;3.30;3.10;;;;;;;9.05;100.00;100504.50;5014592;28;20197;-86
2023/04/21 06:42:22;;;;;;;4.57;4.27;;;;;;;9.16;100.00;100509.47;5013000;28;20222;-86
2023/04/21 06:44:47;;;;;;;2.10;2.00;;;;;;;9.21;100.00;100509.38;5014043;28;20618;-86
2023/04/21 06:47:15;;;;;;;3.67;3.43;;;;;;;9.32;100.00;100515.47;5014111;28;20215;-87
2023/04/21 06:49:41;;;;;;;3.13;2.53;;;;;;;9.44;100.00;100507.59;5012693;28;20183;-87
2023/04/21 06:52:08;;;;;;;3.80;3.60;;;;;;;9.43;100.00;100502.44;5012756;28;20267;-86
2023/04/21 06:54:34;;;;;;;2.20;1.30;;;;;;;9.53;100.00;100511.22;5011954;28;20181;-86
2023/04/21 06:56:59;;;;;;;9.17;8.30;;;;;;;9.59;100.00;100509.22;5012551;28;20234;-87
2023/04/21 06:59:25;;;;;;;3.87;3.50;;;;;;;9.63;100.00;100510.22;5012566;28;20220;-87
2023/04/21 07:01:53;;;;;;;3.67;3.40;;;;;;;9.68;100.00;100512.03;5012780;28;20598;-88
2023/04/21 07:04:20;;;;;;;2.20;2.10;;;;;;;9.91;100.00;100521.94;5013504;28;20177;-87
2023/04/21 07:06:48;;;;;;;8.77;7.97;;;;;;;9.97;100.00;100515.25;5013800;28;20192;-87
2023/04/21 07:09:14;;;;;;;10.40;4.73;;;;;;;9.98;100.00;100522.34;5013427;28;20173;-87
2023/04/21 07:11:42;;;;;;;3.87;3.57;;;;;;;10.11;100.00;100513.31;5013876;28;20176;-87
2023/04/21 07:14:09;;;;;;;5.43;1.47;;;;;;;10.16;100.00;100511.59;5012286;28;20181;-87
2023/04/21 07:16:37;;;;;;;4.53;3.90;;;;;;;10.34;100.00;100510.66;5013596;28;20196;-87
2023/04/21 07:19:05;;;;;;;4.53;4.20;;;;;;;10.37;100.00;100507.31;5012291;28;20192;-87
2023/04/21 07:21:39;;;;;;;2.97;2.57;;;;;;;10.40;100.00;100506.69;5013693;28;20180;-87
2023/04/21 07:24:04;;;;;;;4.30;4.00;;;;;;;10.48;100.00;100505.97;5013416;28;20177;-87
2023/04/21 07:26:30;;;;;;;4.70;4.40;;;;;;;10.48;100.00;100503.22;5013402;28;20200;-88
2023/04/21 07:28:59;;;;;;;6.10;5.60;;;;;;;10.50;100.00;100501.00;5012236;28;20185;-87
2023/04/21 07:31:30;;;;;;;12.33;2.57;;;;;;;10.71;100.00;100506.78;5013447;28;20243;-86
2023/04/21 07:33:55;;;;;;;6.37;5.87;;;;;;;10.70;100.00;100503.25;5013561;28;20531;-87
2023/04/21 07:36:25;;;;;;;4.43;4.07;;;;;;;10.85;100.00;100507.53;5011473;28;20200;-87
2023/04/21 07:38:50;;;;;;;5.37;4.60;;;;;;;11.00;100.00;100498.13;5010758;28;20238;-88
2023/04/21 07:41:15;;;;;;;3.57;2.53;;;;;;;11.05;100.00;100492.53;5013257;28;20722;-88
2023/04/21 07:43:44;;;;;;;6.87;6.17;;;;;;;11.22;100.00;100494.53;5011325;28;20181;-87
2023/04/21 07:46:09;;;;;;;4.47;3.67;;;;;;;11.35;100.00;100482.69;5013742;28;20227;-87
2023/04/21 07:48:35;;;;;;;4.60;2.83;;;;;;;11.34;100.00;100486.56;5013271;28;20180;-87
2023/04/21 07:51:02;;;;;;;3.33;3.03;;;;;;;11.49;100.00;100472.47;5013453;28;20677;-88
2023/04/21 07:53:33;;;;;;;4.47;4.10;;;;;;;11.49;100.00;100482.59;5011955;28;20172;-89
2023/04/21 07:55:59;;;;;;;4.47;3.20;;;;;;;11.51;99.09;100469.41;5012983;28;20172;-88
2023/04/21 07:58:33;;;;;;;2.87;2.67;;;;;;;11.76;98.21;100467.88;5012183;28;20307;-88
2023/04/21 08:00:58;;;;;;;3.30;3.10;;;;;;;11.68;97.50;100474.91;5012009;28;20180;-88
2023/04/21 08:03:24;;;;;;;5.93;5.43;;;;;;;11.77;96.25;100459.34;5011479;28;20666;-88
2023/04/21 08:05:49;;;;;;;3.43;3.13;;;;;;;11.85;95.25;100460.50;5013176;28;20177;-88
2023/04/21 08:08:19;;;;;;;4.07;3.77;;;;;;;11.97;94.53;100451.66;5014234;28;20216;-88
2023/04/21 08:10:45;;;;;;;5.07;4.73;;;;;;;11.98;94.45;100458.75;5030116;28;20183;-88
2023/04/21 08:13:13;;;;;;;4.73;3.90;;;;;;;12.19;93.83;100462.50;5022454;28;20173;-88
2023/04/21 08:15:42;;;;;;;6.77;3.80;;;;;;;12.31;92.74;100473.63;5015380;28;20181;-89
2023/04/21 08:18:08;;;;;;;5.43;4.57;;;;;;;12.34;91.59;100462.00;5012155;28;20200;-87
2023/04/21 08:20:39;;;;;;;4.97;4.60;;;;;;;12.40;90.56;100452.47;5011937;28;20220;-88
2023/04/21 08:23:13;;;;;;;10.30;3.57;;;;;;;12.49;89.31;100447.81;5011476;28;20176;-88
2023/04/21 08:25:42;;;;;;;7.03;3.70;;;;;;;12.50;87.75;100452.16;5012806;28;20173;-87
2023/04/21 08:28:07;;;;;;;1.50;1.40;;;;;;;12.70;87.93;100455.34;5012500;28;20197;-88
2023/04/21 08:30:50;;;;;;;4.93;1.87;;;;;;;12.80;87.88;100457.75;5011465;28;20315;-87
2023/04/21 08:33:15;;;;;;;0.60;0.53;;;;;;;13.00;87.89;100457.06;5011265;28;20176;-88
2023/04/21 08:35:47;;;;;;;7.33;4.80;;;;;;;13.01;84.71;100444.16;5011495;28;20187;-88
2023/04/21 08:38:12;;;;;;;27.07;4.00;;;;;;;12.98;84.42;100440.13;5012753;28;20197;-88
2023/04/21 08:40:40;;;;;;;0.37;0.30;;;;;;;13.16;84.88;100446.34;5012676;28;20729;-89
2023/04/21 08:43:06;;;;;;;2.17;2.07;;;;;;;13.23;83.49;100443.16;5011294;28;20172;-87
2023/04/21 08:45:45;;;;;;;4.03;3.73;;;;;;;13.43;82.71;100434.16;5012811;28;20689;-87
2023/04/21 08:48:15;;;;;;;3.83;3.20;;;;;;;13.51;81.46;100449.00;5013043;28;20607;-85
2023/04/21 08:50:45;;;;;;;11.37;3.40;;;;;;;13.51;80.24;100429.78;5011498;28;20179;-87
2023/04/21 08:56:00;;;;;;;2.00;1.90;;;;;;;13.70;79.83;100432.88;5012908;28;20226;-87
2023/04/21 08:58:25;;;;;;;6.27;4.57;;;;;;;13.79;78.61;100419.91;5033119;22;20904;-85
2023/04/21 09:00:50;;;;;;;4.73;4.03;;;;;;;13.86;77.27;100425.66;5011871;28;20208;-85
2023/04/21 09:03:23;;;;;;;1.23;1.17;;;;;;;14.00;77.64;100428.97;5012301;28;20226;-84
2023/04/21 09:06:06;;;;;;;1.90;1.90;;;;;;;14.19;77.26;100427.72;5012502;28;20199;-85
2023/04/21 09:08:33;;;;;;;2.07;1.97;;;;;;;14.17;75.42;100436.25;5010113;28;20224;-84
2023/04/21 09:11:00;;;;;;;6.60;2.33;;;;;;;14.27;75.96;100422.13;5012450;28;20204;-85
2023/04/21 09:13:43;;;;;;;3.47;3.17;;;;;;;14.26;75.31;100411.47;5012462;28;20169;-85
2023/04/21 09:16:17;;;;;;;18.60;1.90;;;;;;;14.46;75.01;100410.66;5016169;28;20176;-82
2023/04/21 09:18:43;;;;;;;14.30;4.27;;;;;;;14.39;73.18;100409.56;5016270;28;20200;-84
2023/04/21 09:21:11;;;;;;;1.33;1.30;;;;;;;14.52;74.27;100419.50;5016227;28;20173;-85
2023/04/21 09:23:40;;;;;;;2.47;2.33;;;;;;;14.63;73.78;100411.66;5016179;28;20177;-85
2023/04/21 09:26:06;;;;;;;1.73;1.63;;;;;;;14.59;73.16;100387.56;5014787;28;20180;-85
2023/04/21 09:28:32;;;;;;;3.73;3.43;;;;;;;14.66;72.42;100405.47;5015991;28;20203;-85
2023/04/21 09:30:57;;;;;;;1.03;1.00;;;;;;;14.79;72.77;100407.91;5014460;28;20643;-85
2023/04/21 09:33:22;;;;;;;2.10;1.90;;;;;;;14.95;72.70;100399.78;5015423;28;20169;-85
2023/04/21 09:35:47;;;;;;;2.23;2.03;;;;;;;14.98;72.10;100398.31;5015945;28;20187;-85
2023/04/21 09:38:13;;;;;;;11.10;2.77;;;;;;;15.03;70.86;100396.13;5015402;28;20188;-84
2023/04/21 09:40:39;;;;;;;5.30;1.57;;;;;;;15.14;71.06;100402.78;5015559;28;20192;-85
2023/04/21 09:43:05;;;;;;;3.20;2.90;;;;;;;15.21;70.78;100395.94;5015379;28;20165;-85
2023/04/21 09:45:31;;;;;;;3.20;2.23;;;;;;;15.09;69.25;100385.72;5014505;28;20176;-84
2023/04/21 09:48:02;;;;;;;1.77;1.67;;;;;;;15.35;68.71;100382.63;5015328;28;20192;-85
2023/04/21 09:50:28;;;;;;;3.63;2.37;;;;;;;15.41;67.83;100381.22;5014419;28;20171;-85
2023/04/21 09:52:55;;;;;;;4.30;4.03;;;;;;;15.45;66.79;100379.38;5015504;28;20176;-85
2023/04/21 09:55:27;;;;;;;0.90;0.87;;;;;;;15.65;66.13;100383.19;5014071;28;20176;-85
2023/04/21 09:57:58;;;;;;;1.60;1.60;;;;;;;15.67;65.84;100386.41;5013919;28;20282;-85
2023/04/21 10:00:27;;;;;;;3.03;2.33;;;;;;;15.70;66.60;100374.69;5014223;28;20223;-85
2023/04/21 10:02:53;;;;;;;0.50;0.50;;;;;;;15.80;66.90;100382.47;5014807;28;20626;-85
2023/04/21 10:05:19;;;;;;;2.03;1.93;;;;;;;15.81;64.77;100355.72;5015023;28;20180;-85
2023/04/21 10:07:46;;;;;;;1.47;1.37;;;;;;;15.82;63.91;100358.13;5015283;28;20279;-85
2023/04/21 10:10:21;;;;;;;3.37;2.87;;;;;;;16.02;64.08;100346.13;5014960;28;20175;-85
2023/04/21 10:12:47;;;;;;;3.07;2.87;;;;;;;16.10;63.04;100346.31;5014888;28;20689;-84
2023/04/21 10:15:32;;;;;;;3.03;2.77;;;;;;;16.14;62.40;100341.72;5014936;28;20180;-85
2023/04/21 10:18:22;;;;;;;1.80;1.70;;;;;;;16.33;61.49;100330.81;5014399;28;20189;-86
2023/04/21 10:21:07;;;;;;;3.07;2.70;;;;;;;16.31;60.31;100322.09;5009752;28;20216;-85
2023/04/21 10:23:42;;;;;;;0.90;0.90;;;;;;;16.38;60.00;100308.50;5014556;28;20161;-86
2023/04/21 10:26:12;;;;;;;2.47;2.27;;;;;;;16.46;59.75;100315.00;5013388;28;20572;-85
2023/04/21 10:28:47;;;;;;;2.23;2.07;;;;;;;16.43;58.70;100313.75;5014456;28;20192;-85
2023/04/21 10:31:18;;;;;;;2.47;1.07;;;;;;;16.59;59.15;100309.06;5014293;28;20234;-85
2023/04/21 10:34:06;;;;;;;3.20;2.90;;;;;;;16.44;57.59;100286.97;5014295;28;20176;-85
2023/04/21 10:36:33;;;;;;;3.83;1.87;;;;;;;16.61;58.03;100297.66;5014753;28;20581;-86
2023/04/21 10:39:03;;;;;;;3.03;2.57;;;;;;;16.85;58.49;100292.00;5014153;28;20192;-86
2023/04/21 10:41:30;;;;;;;3.37;3.07;;;;;;;16.94;56.97;100278.03;5013155;28;20589;-85
2023/04/21 10:43:59;;;;;;;3.43;2.57;;;;;;;16.97;56.94;100279.25;5012893;28;20176;-85
2023/04/21 10:46:34;;;;;;;2.80;2.60;;;;;;;16.97;56.92;100265.47;5014039;28;20169;-85
2023/04/21 10:49:10;;;;;;;3.27;3.03;;;;;;;17.01;57.06;100269.91;5014035;28;20662;-86
2023/04/21 10:52:06;;;;;;;5.33;3.37;;;;;;;16.88;56.58;100260.91;5014096;28;20651;-85
2023/04/21 10:54:40;;;;;;;1.67;1.20;;;;;;;17.10;56.89;100295.38;5014001;28;20160;-85
2023/04/21 10:57:19;;;;;;;5.87;2.40;;;;;;;17.20;55.36;100272.69;5013888;28;20250;-86
2023/04/21 10:59:46;;;;;;;12.10;2.83;;;;;;;17.25;55.57;100271.63;5014013;28;20199;-85
2023/04/21 11:02:17;;;;;;;11.73;2.47;;;;;;;17.31;55.15;100263.84;5012764;28;20215;-85
2023/04/21 11:04:46;;;;;;;2.67;2.27;;;;;;;17.30;53.81;100245.69;5014140;28;20227;-85
2023/04/21 11:07:13;;;;;;;3.67;2.13;;;;;;;17.35;53.91;100248.16;5014506;28;20196;-85
2023/04/21 11:09:40;;;;;;;2.70;1.67;;;;;;;17.33;54.32;100253.25;5012839;28;20176;-84
2023/04/21 11:12:11;;;;;;;3.90;3.47;;;;;;;17.34;54.37;100238.28;5014009;28;20617;-85
2023/04/21 11:14:38;;;;;;;2.27;2.13;;;;;;;17.31;52.55;100231.53;5013743;28;20670;-85
2023/04/21 11:17:09;;;;;;;3.53;2.37;;;;;;;17.38;53.27;100245.50;5012554;28;20207;-84
2023/04/21 11:19:35;;;;;;;2.03;1.83;;;;;;;17.42;52.03;100220.72;5013947;28;20204;-86
2023/04/21 11:22:00;;;;;;;19.97;3.10;;;;;;;17.38;52.79;100228.13;5012291;28;20188;-85
2023/04/21 11:24:26;;;;;;;6.40;3.60;;;;;;;17.43;50.54;100227.84;5012305;28;20190;-86
2023/04/21 11:26:51;;;;;;;7.20;2.70;;;;;;;17.46;52.13;100221.56;5013410;28;20549;-86
2023/04/21 11:29:16;;;;;;;2.80;2.60;;;;;;;17.54;53.02;100224.13;5013668;28;20175;-85